Time;durP1;ratioP1;P1;durP2;ratioP2;P2;SDS_P1;SDS_P2;PMS_P1;PMS_P2;Temp;Humidity;BMP_temperature;BMP_pressure;BME280_temperature;BME280_humidity;BME280_pressure;Samples;Min_cycle;Max_cycle;Signal;HPM_P1;HPM_P2
2022/03/16 00:02:05;;;;;;;43.93;22.70;;;10.10;56.60;;;;;;5094467;27;20792;-93
2022/03/16 00:04:34;;;;;;;35.17;22.77;;;10.10;55.90;;;;;;5094491;27;20465;-94
2022/03/16 00:07:00;;;;;;;32.10;20.60;;;10.10;55.60;;;;;;5125738;27;20452;-93
2022/03/16 00:09:28;;;;;;;38.50;19.00;;;10.10;55.60;;;;;;5105344;27;20847;-92
2022/03/16 00:11:55;;;;;;;68.97;20.37;;;10.20;55.60;;;;;;5107582;27;20461;-93
2022/03/16 00:14:21;;;;;;;54.30;18.70;;;10.10;55.90;;;;;;5119429;27;20466;-93
2022/03/16 00:16:48;;;;;;;29.23;15.53;;;9.70;57.90;;;;;;5093019;27;21220;-92
2022/03/16 00:19:15;;;;;;;42.83;20.83;;;9.60;58.10;;;;;;5105482;27;20437;-92
2022/03/16 00:21:44;;;;;;;45.60;18.57;;;9.70;58.20;;;;;;5090817;27;20433;-93
2022/03/16 00:24:11;;;;;;;30.83;17.97;;;9.70;58.30;;;;;;5111879;27;20469;-92
2022/03/16 00:26:38;;;;;;;37.87;18.57;;;9.80;58.50;;;;;;5094012;27;20578;-92
2022/03/16 00:29:05;;;;;;;42.50;19.00;;;9.90;58.40;;;;;;5110566;27;20501;-92
2022/03/16 00:31:34;;;;;;;39.80;18.33;;;9.80;59.30;;;;;;5118543;27;20458;-91
2022/03/16 00:34:01;;;;;;;34.40;18.00;;;9.70;59.40;;;;;;5105679;27;20548;-92
2022/03/16 00:36:28;;;;;;;37.87;17.50;;;9.60;59.70;;;;;;5106144;27;20823;-94
2022/03/16 00:38:57;;;;;;;57.80;19.63;;;9.60;59.80;;;;;;5110291;27;20453;-92
2022/03/16 00:41:24;;;;;;;30.90;16.30;;;9.60;59.60;;;;;;5105174;27;20536;-92
2022/03/16 00:43:51;;;;;;;32.23;16.90;;;9.70;59.40;;;;;;5110835;27;21273;-93
2022/03/16 00:46:18;;;;;;;29.50;17.23;;;9.90;59.20;;;;;;5107698;27;20458;-93
2022/03/16 00:48:45;;;;;;;45.53;17.23;;;9.80;59.20;;;;;;5110333;27;20645;-91
2022/03/16 00:51:13;;;;;;;74.27;15.00;;;9.90;59.00;;;;;;5103665;27;20503;-92
2022/03/16 00:53:40;;;;;;;51.20;17.80;;;9.70;59.20;;;;;;5108285;27;20458;-92
2022/03/16 00:56:09;;;;;;;49.93;14.80;;;9.50;59.60;;;;;;5106909;27;20460;-93
2022/03/16 00:58:37;;;;;;;46.10;16.73;;;9.30;60.40;;;;;;5103762;27;20444;-92
2022/03/16 01:01:06;;;;;;;54.30;16.27;;;9.40;60.50;;;;;;5103276;27;20449;-92
2022/03/16 01:03:33;;;;;;;46.77;16.30;;;9.60;60.20;;;;;;5104461;27;20484;-92
2022/03/16 01:06:00;;;;;;;94.33;19.83;;;9.70;60.00;;;;;;5092826;27;20453;-92
2022/03/16 01:08:28;;;;;;;112.60;17.50;;;9.80;59.80;;;;;;5105339;27;20484;-92
2022/03/16 01:10:55;;;;;;;46.03;17.20;;;9.90;59.20;;;;;;5091111;27;20448;-92
2022/03/16 01:13:23;;;;;;;54.20;17.90;;;9.90;59.10;;;;;;5108707;27;20484;-93
2022/03/16 01:15:50;;;;;;;43.10;16.10;;;9.90;59.30;;;;;;5089312;27;20452;-92
2022/03/16 01:18:17;;;;;;;52.00;18.07;;;9.80;59.30;;;;;;5103509;27;20483;-92
2022/03/16 01:20:44;;;;;;;63.90;18.73;;;9.70;59.60;;;;;;5121459;27;20457;-93
2022/03/16 01:23:12;;;;;;;190.67;28.10;;;9.70;59.80;;;;;;5108908;27;20468;-92
2022/03/16 01:25:39;;;;;;;65.03;19.17;;;9.70;59.90;;;;;;5089206;27;20445;-92
2022/03/16 01:28:07;;;;;;;44.73;18.70;;;9.60;59.70;;;;;;5102809;27;20861;-93
2022/03/16 01:30:35;;;;;;;41.23;16.70;;;9.60;60.10;;;;;;5108749;27;20469;-91
2022/03/16 01:33:02;;;;;;;35.70;18.97;;;9.70;59.80;;;;;;5110768;27;20469;-92
2022/03/16 01:35:29;;;;;;;56.00;19.03;;;9.80;59.60;;;;;;5122799;27;20442;-93
2022/03/16 01:37:56;;;;;;;77.00;20.07;;;9.70;59.80;;;;;;5123284;27;20429;-92
2022/03/16 01:40:23;;;;;;;96.03;21.23;;;9.50;60.40;;;;;;5095769;27;20450;-93
2022/03/16 01:42:50;;;;;;;81.60;22.20;;;9.60;60.50;;;;;;5104051;27;20466;-92
2022/03/16 01:45:17;;;;;;;86.40;20.70;;;9.50;60.60;;;;;;5097438;27;20440;-94
2022/03/16 01:47:45;;;;;;;74.07;21.17;;;9.70;60.10;;;;;;5114151;27;20453;-92
2022/03/16 01:50:15;;;;;;;37.90;14.47;;;9.60;60.10;;;;;;5112837;27;20453;-92
2022/03/16 01:52:43;;;;;;;50.80;14.23;;;9.40;60.50;;;;;;5114916;27;20603;-93
2022/03/16 01:55:10;;;;;;;60.60;17.67;;;9.50;60.60;;;;;;5108409;27;20447;-94
2022/03/16 01:57:41;;;;;;;46.33;16.33;;;9.60;60.10;;;;;;5110319;27;20473;-92
2022/03/16 02:00:10;;;;;;;79.83;17.73;;;9.70;59.80;;;;;;5097296;27;20433;-93
2022/03/16 02:02:41;;;;;;;36.93;16.10;;;9.80;59.70;;;;;;5106611;27;20477;-92
2022/03/16 02:05:10;;;;;;;122.90;17.17;;;9.60;60.00;;;;;;5096775;27;21112;-92
2022/03/16 02:07:38;;;;;;;27.10;12.03;;;9.70;59.10;;;;;;5092090;27;20459;-93
2022/03/16 02:10:06;;;;;;;41.17;14.27;;;9.50;59.80;;;;;;5112444;27;20457;-93
2022/03/16 02:12:44;;;;;;;47.03;15.03;;;9.40;59.60;;;;;;5123866;27;20470;-91
2022/03/16 02:15:11;;;;;;;46.50;14.20;;;9.20;60.60;;;;;;5090822;27;20510;-93
2022/03/16 02:17:38;;;;;;;34.00;13.23;;;9.20;60.90;;;;;;5114415;27;20441;-92
2022/03/16 02:20:07;;;;;;;55.13;14.20;;;9.30;61.30;;;;;;5114603;27;20445;-92
2022/03/16 02:22:37;;;;;;;39.57;14.27;;;9.30;61.20;;;;;;5122135;27;20484;-90
2022/03/16 02:25:08;;;;;;;45.27;14.77;;;9.30;61.30;;;;;;5103405;27;20434;-92
2022/03/16 02:27:38;;;;;;;37.50;15.40;;;9.40;60.80;;;;;;5105530;27;20827;-92
2022/03/16 02:30:06;;;;;;;66.20;17.40;;;9.30;61.00;;;;;;5103193;27;20445;-92
2022/03/16 02:32:33;;;;;;;35.27;15.40;;;9.40;60.80;;;;;;5096553;27;20988;-90
2022/03/16 02:35:00;;;;;;;35.30;15.20;;;9.40;60.50;;;;;;5108514;27;20451;-93
2022/03/16 02:37:27;;;;;;;54.43;15.50;;;9.30;60.70;;;;;;5108548;27;20451;-92
2022/03/16 02:39:55;;;;;;;40.87;14.87;;;9.20;61.10;;;;;;5124258;27;20442;-93
2022/03/16 02:42:23;;;;;;;36.07;14.90;;;9.20;61.10;;;;;;5125714;27;21192;-92
2022/03/16 02:44:50;;;;;;;62.70;15.70;;;9.40;61.00;;;;;;5111176;27;20510;-90
2022/03/16 02:47:17;;;;;;;43.03;15.03;;;9.40;60.50;;;;;;5118533;27;20437;-93
2022/03/16 02:49:44;;;;;;;34.73;12.30;;;9.30;60.50;;;;;;5102516;27;20449;-92
2022/03/16 02:52:12;;;;;;;36.40;15.40;;;9.00;60.80;;;;;;5111294;27;20448;-92
2022/03/16 02:54:39;;;;;;;37.73;13.77;;;8.90;61.50;;;;;;5144610;27;20464;-92
2022/03/16 02:57:07;;;;;;;41.20;16.20;;;9.00;61.40;;;;;;5089183;27;20441;-92
2022/03/16 02:59:36;;;;;;;36.87;14.80;;;9.00;61.20;;;;;;5124753;27;20937;-93
2022/03/16 03:02:03;;;;;;;40.70;16.20;;;9.10;61.00;;;;;;5104571;27;20546;-92
2022/03/16 03:04:30;;;;;;;49.87;15.13;;;9.30;60.30;;;;;;5141357;27;20468;-92
2022/03/16 03:06:58;;;;;;;35.13;15.63;;;9.30;60.40;;;;;;5125706;27;21085;-92
2022/03/16 03:09:25;;;;;;;46.67;15.40;;;9.10;61.00;;;;;;5110782;27;20471;-92
2022/03/16 03:11:52;;;;;;;67.90;16.67;;;9.00;60.70;;;;;;5111868;27;20488;-92
2022/03/16 03:14:19;;;;;;;42.80;15.53;;;8.90;60.70;;;;;;5141539;27;20469;-93
2022/03/16 03:16:47;;;;;;;26.47;13.03;;;9.00;60.90;;;;;;5143666;27;20441;-92
2022/03/16 03:19:14;;;;;;;39.20;15.37;;;9.10;60.40;;;;;;5119859;27;20434;-93
2022/03/16 03:21:41;;;;;;;110.37;17.10;;;9.20;60.10;;;;;;5095994;27;20445;-92
2022/03/16 03:24:08;;;;;;;23.90;12.00;;;9.10;59.40;;;;;;5089637;27;21224;-91
2022/03/16 03:26:35;;;;;;;52.37;15.67;;;9.20;59.70;;;;;;5096883;27;20460;-92
2022/03/16 03:29:02;;;;;;;27.90;11.50;;;9.30;59.40;;;;;;5112330;27;20445;-92
2022/03/16 03:31:30;;;;;;;57.10;14.33;;;9.30;59.60;;;;;;5103112;27;20979;-92
2022/03/16 03:33:58;;;;;;;77.97;14.87;;;9.40;59.30;;;;;;5109718;27;20468;-92
2022/03/16 03:36:25;;;;;;;28.40;14.47;;;9.50;59.20;;;;;;5105784;27;20659;-93
2022/03/16 03:38:52;;;;;;;30.33;13.43;;;9.30;59.00;;;;;;5141297;27;20443;-92
2022/03/16 03:41:19;;;;;;;27.67;13.50;;;9.30;59.00;;;;;;5123200;27;20456;-92
2022/03/16 03:43:46;;;;;;;25.67;13.67;;;9.10;59.20;;;;;;5121828;27;20829;-92
2022/03/16 03:46:13;;;;;;;23.63;13.30;;;9.10;59.20;;;;;;5124204;27;21190;-92
2022/03/16 03:48:40;;;;;;;43.00;15.50;;;9.00;59.50;;;;;;5112873;27;20449;-92
2022/03/16 03:51:09;;;;;;;94.00;23.03;;;9.00;60.00;;;;;;5137120;27;20445;-92
2022/03/16 03:53:36;;;;;;;871.87;291.83;;;9.10;59.80;;;;;;5104223;27;20712;-92
2022/03/16 03:56:03;;;;;;;282.60;79.57;;;9.10;59.00;;;;;;5085376;27;20449;-92
2022/03/16 03:58:30;;;;;;;93.67;32.47;;;8.70;59.80;;;;;;5114279;27;20465;-93
2022/03/16 04:00:58;;;;;;;74.20;28.43;;;8.50;59.80;;;;;;5102422;27;20955;-93
2022/03/16 04:03:25;;;;;;;58.03;21.37;;;8.70;60.40;;;;;;5121247;27;20478;-93
2022/03/16 04:05:52;;;;;;;81.90;23.67;;;8.70;60.10;;;;;;5123001;27;20442;-92
2022/03/16 04:08:20;;;;;;;29.40;14.13;;;8.60;60.00;;;;;;5122660;27;21139;-92
2022/03/16 04:10:47;;;;;;;419.30;134.70;;;8.60;60.20;;;;;;5093231;27;20543;-92
2022/03/16 04:13:14;;;;;;;41.90;20.77;;;8.70;60.10;;;;;;5101907;27;20461;-92
2022/03/16 04:15:41;;;;;;;31.47;15.57;;;8.80;59.70;;;;;;5118994;27;20453;-92
2022/03/16 04:18:08;;;;;;;44.37;15.83;;;8.80;59.80;;;;;;5124697;27;20463;-92
2022/03/16 04:20:35;;;;;;;56.53;13.43;;;8.40;60.20;;;;;;5109347;27;20438;-92
2022/03/16 04:23:02;;;;;;;59.00;13.90;;;8.30;60.90;;;;;;5101150;27;20450;-92
2022/03/16 04:25:30;;;;;;;27.07;14.20;;;8.40;61.00;;;;;;5091959;27;20444;-92
2022/03/16 04:27:57;;;;;;;30.40;14.43;;;8.50;61.30;;;;;;5104881;27;20433;-92
2022/03/16 04:30:24;;;;;;;35.20;14.43;;;8.70;60.90;;;;;;5123077;27;21138;-93
2022/03/16 04:32:52;;;;;;;32.40;14.10;;;8.50;59.90;;;;;;5107270;27;20461;-92
2022/03/16 04:35:20;;;;;;;140.20;39.70;;;8.70;59.80;;;;;;5090094;27;20486;-93
2022/03/16 04:37:47;;;;;;;49.00;27.27;;;8.50;59.80;;;;;;5104188;27;20446;-92
2022/03/16 04:40:14;;;;;;;195.13;20.70;;;8.40;60.90;;;;;;5099499;27;20450;-91
2022/03/16 04:42:42;;;;;;;118.87;22.80;;;8.40;60.80;;;;;;5119805;27;20467;-91
2022/03/16 04:45:10;;;;;;;47.80;14.90;;;8.30;61.10;;;;;;5106183;27;20445;-92
2022/03/16 04:47:37;;;;;;;48.73;14.37;;;8.00;62.40;;;;;;5119830;27;20445;-92
2022/03/16 04:50:06;;;;;;;65.03;16.70;;;7.90;62.00;;;;;;5106038;27;21376;-91
2022/03/16 04:52:33;;;;;;;113.27;20.10;;;7.90;61.70;;;;;;5105420;27;20438;-92
2022/03/16 04:55:00;;;;;;;38.27;12.80;;;8.00;61.90;;;;;;5109747;27;20505;-92
2022/03/16 04:57:27;;;;;;;42.50;13.90;;;8.00;61.80;;;;;;5107117;27;20453;-92
2022/03/16 04:59:55;;;;;;;102.27;18.00;;;8.00;61.60;;;;;;5102168;27;20536;-91
2022/03/16 05:02:22;;;;;;;97.33;24.20;;;8.00;61.20;;;;;;5122494;27;20460;-92
2022/03/16 05:04:49;;;;;;;98.43;25.97;;;7.70;60.50;;;;;;5137998;27;21223;-93
2022/03/16 05:07:16;;;;;;;37.47;14.90;;;7.70;61.20;;;;;;5092399;27;20437;-92
2022/03/16 05:09:43;;;;;;;38.00;12.50;;;7.50;61.60;;;;;;5103149;27;20437;-92
2022/03/16 05:12:10;;;;;;;29.30;12.43;;;7.60;61.20;;;;;;5108393;27;20457;-92
2022/03/16 05:14:37;;;;;;;25.90;11.53;;;7.70;61.30;;;;;;5108509;27;20472;-91
2022/03/16 05:17:06;;;;;;;30.83;11.00;;;7.80;60.80;;;;;;5122215;27;22062;-94
2022/03/16 05:19:33;;;;;;;18.80;10.40;;;7.90;60.50;;;;;;5119199;27;20445;-91
2022/03/16 05:22:01;;;;;;;22.13;10.47;;;8.10;60.20;;;;;;5127702;27;20466;-92
2022/03/16 05:24:27;;;;;;;16.77;9.80;;;8.30;59.70;;;;;;5116885;27;20458;-92
2022/03/16 05:26:54;;;;;;;16.03;9.70;;;8.40;58.80;;;;;;5104150;27;20488;-92
2022/03/16 05:29:22;;;;;;;21.90;10.13;;;8.50;58.70;;;;;;5110220;27;20548;-92
2022/03/16 05:31:48;;;;;;;18.40;11.60;;;8.10;57.00;;;;;;5109656;27;20479;-92
2022/03/16 05:34:17;;;;;;;19.20;11.57;;;8.00;58.50;;;;;;5087879;27;20560;-93
2022/03/16 05:36:44;;;;;;;15.63;10.17;;;8.10;58.60;;;;;;5092216;27;20441;-92
2022/03/16 05:39:11;;;;;;;26.33;9.50;;;7.80;58.50;;;;;;5102268;27;21195;-92
2022/03/16 05:41:38;;;;;;;19.30;10.40;;;7.30;58.50;;;;;;5093232;27;20462;-91
2022/03/16 05:44:06;;;;;;;26.37;11.40;;;7.10;60.80;;;;;;5100301;27;20475;-92
2022/03/16 05:46:33;;;;;;;16.57;9.20;;;7.20;60.70;;;;;;5116573;27;21015;-91
2022/03/16 05:49:00;;;;;;;18.90;10.07;;;7.60;60.40;;;;;;5109469;27;20441;-92
2022/03/16 05:51:28;;;;;;;16.50;9.77;;;7.80;59.10;;;;;;5116149;27;20444;-92
2022/03/16 05:53:55;;;;;;;15.63;8.70;;;7.50;58.50;;;;;;5115300;27;20472;-91
2022/03/16 05:56:22;;;;;;;14.30;8.07;;;7.60;58.90;;;;;;5120260;27;21006;-93
2022/03/16 05:58:49;;;;;;;16.17;8.70;;;7.70;58.00;;;;;;5115027;27;20966;-92
2022/03/16 06:01:16;;;;;;;13.17;8.50;;;7.60;59.10;;;;;;5084483;27;20450;-93
2022/03/16 06:03:43;;;;;;;16.40;9.83;;;7.60;58.50;;;;;;5098395;27;20457;-92
2022/03/16 06:06:10;;;;;;;20.57;10.53;;;7.80;58.70;;;;;;5109033;27;20501;-94
2022/03/16 06:08:39;;;;;;;18.40;10.07;;;7.70;57.30;;;;;;5120945;27;21132;-92
2022/03/16 06:11:06;;;;;;;19.87;11.03;;;7.60;58.50;;;;;;5088838;27;21094;-92
2022/03/16 06:13:33;;;;;;;15.93;8.93;;;7.40;58.80;;;;;;5103811;27;20823;-95
2022/03/16 06:16:00;;;;;;;18.93;10.87;;;7.10;58.30;;;;;;5091907;27;20453;-94
2022/03/16 06:18:27;;;;;;;15.67;9.80;;;7.40;59.20;;;;;;5109913;27;20536;-94
2022/03/16 06:20:54;;;;;;;16.97;9.67;;;7.40;58.10;;;;;;5107471;27;20526;-92
2022/03/16 06:23:21;;;;;;;17.40;10.10;;;7.50;58.60;;;;;;5122906;27;20524;-92
2022/03/16 06:25:49;;;;;;;17.97;10.70;;;7.50;58.20;;;;;;5090431;27;20999;-94
2022/03/16 06:28:18;;;;;;;13.03;9.07;;;7.50;58.90;;;;;;5096966;27;20496;-94
2022/03/16 06:30:46;;;;;;;16.13;9.80;;;7.70;58.50;;;;;;5114392;27;20457;-93
2022/03/16 06:33:13;;;;;;;34.40;10.40;;;7.90;58.20;;;;;;5092355;27;20469;-94
2022/03/16 06:35:40;;;;;;;17.80;10.57;;;7.80;56.70;;;;;;5110126;27;20441;-94
2022/03/16 06:38:08;;;;;;;16.00;10.17;;;7.50;57.80;;;;;;5101276;27;20488;-94
2022/03/16 06:40:35;;;;;;;24.80;9.60;;;7.50;59.20;;;;;;5126475;27;20441;-93
2022/03/16 06:43:03;;;;;;;15.10;9.67;;;7.40;58.50;;;;;;5101260;27;21051;-92
2022/03/16 06:45:31;;;;;;;15.77;9.83;;;7.20;58.50;;;;;;5101687;27;21069;-94
2022/03/16 06:47:59;;;;;;;18.20;10.50;;;7.20;59.50;;;;;;5105152;27;20452;-93
2022/03/16 06:50:28;;;;;;;20.40;10.93;;;7.50;59.20;;;;;;5106034;27;20449;-94
2022/03/16 06:52:56;;;;;;;15.00;8.80;;;7.80;58.90;;;;;;5088941;27;20462;-94
2022/03/16 06:55:23;;;;;;;17.87;11.63;;;8.00;58.00;;;;;;5104920;27;20568;-94
2022/03/16 06:57:51;;;;;;;16.77;9.70;;;8.10;57.90;;;;;;5105808;27;20437;-93
2022/03/16 07:00:19;;;;;;;37.03;11.30;;;8.00;58.20;;;;;;5096039;27;20485;-94
2022/03/16 07:02:51;;;;;;;19.27;10.17;;;7.50;58.00;;;;;;5096703;27;20469;-93
2022/03/16 07:05:18;;;;;;;27.50;11.07;;;7.40;59.50;;;;;;5117319;27;20429;-95
2022/03/16 07:07:45;;;;;;;18.77;10.90;;;7.40;59.00;;;;;;5122499;27;20437;-91
2022/03/16 07:10:13;;;;;;;17.33;11.10;;;7.70;59.30;;;;;;5119244;27;20539;-92
2022/03/16 07:12:40;;;;;;;18.80;10.70;;;7.90;59.00;;;;;;5110922;27;21421;-93
2022/03/16 07:15:09;;;;;;;16.90;10.40;;;8.10;58.70;;;;;;5111312;27;20568;-93
2022/03/16 07:17:37;;;;;;;24.10;10.30;;;8.10;58.40;;;;;;5102930;27;20449;-92
2022/03/16 07:20:06;;;;;;;28.20;11.90;;;7.90;58.00;;;;;;5121246;27;20533;-94
2022/03/16 07:22:34;;;;;;;25.63;8.90;;;8.00;58.60;;;;;;5087469;27;20452;-91
2022/03/16 07:25:03;;;;;;;27.00;10.07;;;7.80;58.50;;;;;;5132595;27;20438;-93
2022/03/16 07:27:30;;;;;;;20.30;8.07;;;7.90;59.00;;;;;;5116625;27;20502;-90
2022/03/16 07:29:57;;;;;;;23.70;11.20;;;7.50;58.90;;;;;;5097652;27;20440;-90
2022/03/16 07:32:24;;;;;;;27.10;12.93;;;7.40;60.40;;;;;;5107044;27;20560;-89
2022/03/16 07:34:53;;;;;;;22.47;12.50;;;7.30;59.70;;;;;;5118495;27;20477;-90
2022/03/16 07:37:22;;;;;;;22.20;9.40;;;7.60;60.30;;;;;;5119675;27;20991;-89
2022/03/16 07:39:49;;;;;;;12.67;7.93;;;7.60;59.70;;;;;;5103775;27;20453;-90
2022/03/16 07:42:16;;;;;;;17.23;9.30;;;7.70;59.50;;;;;;5136565;27;20449;-89
2022/03/16 07:44:43;;;;;;;21.30;14.10;;;7.70;59.30;;;;;;5135887;27;20476;-90
2022/03/16 07:47:10;;;;;;;19.40;10.27;;;8.00;59.20;;;;;;5082490;27;20949;-91
2022/03/16 07:49:37;;;;;;;18.90;9.77;;;7.90;58.70;;;;;;5078636;27;20456;-89
2022/03/16 07:52:06;;;;;;;42.30;8.83;;;7.70;59.10;;;;;;5108294;27;20448;-90
2022/03/16 07:54:33;;;;;;;18.70;9.60;;;7.40;59.30;;;;;;5112840;27;21027;-89
2022/03/16 07:57:00;;;;;;;15.97;9.20;;;7.60;60.20;;;;;;5079768;27;20447;-90
2022/03/16 07:59:28;;;;;;;21.87;9.70;;;7.90;60.60;;;;;;5116591;27;21082;-91
2022/03/16 08:01:55;;;;;;;19.93;10.07;;;8.10;59.80;;;;;;5118771;27;20476;-91
2022/03/16 08:04:22;;;;;;;34.83;16.60;;;8.30;59.60;;;;;;5089003;27;20573;-92
2022/03/16 08:06:49;;;;;;;25.97;11.10;;;8.20;59.20;;;;;;5116733;27;20430;-91
2022/03/16 08:09:17;;;;;;;20.57;12.27;;;8.10;59.90;;;;;;5086363;27;20435;-90
2022/03/16 08:11:45;;;;;;;21.90;10.57;;;8.10;59.70;;;;;;5103859;27;20457;-90
2022/03/16 08:14:12;;;;;;;19.37;9.93;;;8.00;60.10;;;;;;5107743;27;20478;-90
2022/03/16 08:16:39;;;;;;;15.70;10.03;;;7.90;60.50;;;;;;5135319;27;20449;-87
2022/03/16 08:19:06;;;;;;;23.07;10.47;;;7.90;60.90;;;;;;5103802;27;20472;-90
2022/03/16 08:21:34;;;;;;;15.70;9.50;;;8.00;60.80;;;;;;5119903;27;20453;-88
2022/03/16 08:24:00;;;;;;;16.20;9.00;;;8.10;60.40;;;;;;5096071;27;20483;-88
2022/03/16 08:26:29;;;;;;;17.23;9.33;;;8.30;60.00;;;;;;5121536;27;20459;-89
2022/03/16 08:28:56;;;;;;;15.80;8.90;;;8.00;60.20;;;;;;5119250;27;20813;-88
2022/03/16 08:31:23;;;;;;;16.70;10.47;;;8.00;60.90;;;;;;5104392;27;20445;-90
2022/03/16 08:33:50;;;;;;;14.60;9.40;;;8.20;61.20;;;;;;5118955;27;20473;-90
2022/03/16 08:36:17;;;;;;;17.50;10.10;;;8.30;60.80;;;;;;5116763;27;20472;-91
2022/03/16 08:38:44;;;;;;;15.60;9.07;;;8.40;60.90;;;;;;5118815;27;20838;-92
2022/03/16 08:41:11;;;;;;;18.80;10.30;;;8.30;60.40;;;;;;5099956;27;20543;-91
2022/03/16 08:43:40;;;;;;;13.17;8.77;;;8.50;60.50;;;;;;5116348;27;20469;-90
2022/03/16 08:46:07;;;;;;;18.13;9.50;;;8.50;60.70;;;;;;5088076;27;20445;-91
2022/03/16 08:48:34;;;;;;;19.53;9.67;;;8.80;60.50;;;;;;5104324;27;20850;-91
2022/03/16 08:51:02;;;;;;;21.03;10.73;;;9.10;60.00;;;;;;5104736;27;20452;-91
2022/03/16 08:53:30;;;;;;;18.07;10.93;;;9.30;60.00;;;;;;5119114;27;21031;-91
2022/03/16 08:55:57;;;;;;;16.17;9.80;;;9.40;59.10;;;;;;5080325;27;20460;-92
2022/03/16 08:58:24;;;;;;;19.27;8.83;;;9.20;59.90;;;;;;5100189;27;20454;-92
2022/03/16 09:00:52;;;;;;;14.83;9.73;;;9.10;60.20;;;;;;5098092;27;20880;-92
2022/03/16 09:03:19;;;;;;;17.53;11.00;;;9.00;60.90;;;;;;5086124;28;20553;-91
2022/03/16 09:05:46;;;;;;;17.80;10.33;;;9.00;60.80;;;;;;5102133;27;20485;-90
2022/03/16 09:08:14;;;;;;;17.17;10.30;;;9.00;62.00;;;;;;5124625;27;20531;-90
2022/03/16 09:10:42;;;;;;;15.30;9.87;;;9.10;61.10;;;;;;5115400;27;20972;-90
2022/03/16 09:13:10;;;;;;;20.63;10.07;;;9.10;61.40;;;;;;5105391;27;21005;-91
2022/03/16 09:15:37;;;;;;;19.37;10.53;;;9.40;61.50;;;;;;5116683;27;20530;-91
2022/03/16 09:18:08;;;;;;;19.10;10.20;;;9.30;61.10;;;;;;5121191;27;20449;-91
2022/03/16 09:20:35;;;;;;;19.20;11.30;;;9.50;62.00;;;;;;5111750;27;20449;-92
2022/03/16 09:23:02;;;;;;;20.27;10.60;;;9.50;61.10;;;;;;5091862;27;20465;-91
2022/03/16 09:25:29;;;;;;;17.20;10.10;;;9.60;61.50;;;;;;5118442;27;20430;-93
2022/03/16 09:27:57;;;;;;;17.03;10.53;;;9.80;60.90;;;;;;5119743;27;20951;-92
2022/03/16 09:30:24;;;;;;;16.33;10.40;;;9.80;60.20;;;;;;5101174;27;20457;-92
2022/03/16 09:32:54;;;;;;;16.57;10.03;;;9.80;61.00;;;;;;5082607;27;20470;-92
2022/03/16 09:35:23;;;;;;;15.83;9.33;;;9.90;61.00;;;;;;5103209;27;20461;-90
2022/03/16 09:37:50;;;;;;;17.83;9.10;;;10.00;59.90;;;;;;5081783;27;20548;-90
2022/03/16 09:40:18;;;;;;;18.30;11.57;;;10.20;66.10;;;;;;5114745;27;20840;-91
2022/03/16 09:42:48;;;;;;;17.13;10.10;;;10.50;61.10;;;;;;5105017;27;20533;-91
2022/03/16 09:45:19;;;;;;;15.00;10.13;;;10.60;59.60;;;;;;5096662;27;20502;-90
2022/03/16 09:47:47;;;;;;;21.83;11.70;;;10.80;59.20;;;;;;5123301;27;20455;-91
2022/03/16 09:50:14;;;;;;;16.33;9.53;;;10.70;59.50;;;;;;5089398;27;20468;-92
2022/03/16 09:52:44;;;;;;;21.87;11.70;;;10.80;59.30;;;;;;5090925;27;20471;-93
2022/03/16 09:55:11;;;;;;;22.80;11.60;;;10.90;59.30;;;;;;5110628;27;20472;-93
2022/03/16 09:57:38;;;;;;;20.70;11.40;;;11.10;59.30;;;;;;5122424;27;20437;-92
2022/03/16 10:00:06;;;;;;;23.33;12.73;;;11.40;59.20;;;;;;5087757;27;20859;-91
2022/03/16 10:02:33;;;;;;;20.07;11.90;;;11.30;58.00;;;;;;5118571;27;20453;-90
2022/03/16 10:05:00;;;;;;;22.10;11.50;;;11.10;59.20;;;;;;5103219;27;20446;-90
2022/03/16 10:07:28;;;;;;;22.53;11.73;;;11.00;59.80;;;;;;5115689;27;21302;-91
2022/03/16 10:15:26;;;;;;;20.30;11.10;;;11.50;59.70;;;;;;5088986;27;20552;-90
2022/03/16 10:17:59;;;;;;;22.63;12.33;;;11.70;59.60;;;;;;5116616;27;20548;-91
2022/03/16 10:20:28;;;;;;;19.87;13.27;;;12.00;59.40;;;;;;5104755;27;20949;-91
2022/03/16 10:22:58;;;;;;;18.93;11.17;;;12.20;58.90;;;;;;5093156;27;20559;-91
2022/03/16 10:25:27;;;;;;;27.77;15.23;;;11.90;58.50;;;;;;5105358;27;21173;-91
2022/03/16 10:28:10;;;;;;;23.17;13.17;;;11.70;59.40;;;;;;5100884;27;21250;-92
2022/03/16 10:30:38;;;;;;;22.70;13.97;;;11.70;59.30;;;;;;5102248;27;20438;-92
2022/03/16 10:33:05;;;;;;;25.60;14.50;;;11.70;59.80;;;;;;5098747;27;20983;-91
2022/03/16 10:35:33;;;;;;;24.03;12.83;;;11.90;59.90;;;;;;5123739;27;20474;-91
2022/03/16 10:38:13;;;;;;;20.43;13.17;;;12.10;59.70;;;;;;5079652;27;20465;-90
2022/03/16 10:40:42;;;;;;;19.27;12.73;;;12.10;59.40;;;;;;5118924;27;20453;-90
2022/03/16 10:49:01;;;;;;;24.90;13.30;;;13.00;59.00;;;;;;5084825;27;20962;-92
2022/03/16 10:51:28;;;;;;;20.97;13.00;;;13.20;58.70;;;;;;5108441;27;20480;-90
2022/03/16 10:53:56;;;;;;;24.87;15.43;;;13.30;58.60;;;;;;5102758;27;20471;-92
2022/03/16 10:56:27;;;;;;;27.13;14.10;;;13.40;58.80;;;;;;5121899;27;20849;-92
2022/03/16 10:58:55;;;;;;;23.47;15.00;;;13.50;57.90;;;;;;5091860;27;20528;-93
2022/03/16 11:01:24;;;;;;;23.70;15.10;;;13.70;57.50;;;;;;5116424;27;20456;-91
2022/03/16 11:03:51;;;;;;;23.57;14.30;;;14.10;57.70;;;;;;5085376;27;20468;-92
2022/03/16 11:06:21;;;;;;;25.30;14.00;;;14.30;55.90;;;;;;5098739;27;20470;-91
2022/03/16 11:08:49;;;;;;;27.30;14.33;;;14.50;55.50;;;;;;5136849;27;20968;-90
2022/03/16 11:14:05;;;;;;;23.90;14.77;;;14.70;53.80;;;;;;5105296;27;21050;-92
2022/03/16 11:16:33;;;;;;;23.63;15.20;;;14.80;54.40;;;;;;5120487;27;20458;-91
2022/03/16 11:19:03;;;;;;;27.93;15.90;;;15.00;54.30;;;;;;5087115;27;21002;-91
2022/03/16 11:21:38;;;;;;;30.30;16.10;;;15.20;53.70;;;;;;5118473;27;20476;-91
2022/03/16 11:24:16;;;;;;;26.73;14.93;;;15.40;54.20;;;;;;5130922;27;20472;-90
2022/03/16 11:27:09;;;;;;;19.77;12.10;;;15.70;52.50;;;;;;5136442;27;20445;-91
2022/03/16 11:29:47;;;;;;;29.60;15.60;;;15.50;51.30;;;;;;5132990;27;20476;-90
2022/03/16 11:32:16;;;;;;;20.50;13.00;;;15.40;51.70;;;;;;5116489;27;20460;-90
2022/03/16 11:34:48;;;;;;;29.40;16.17;;;15.60;52.90;;;;;;5102171;27;20984;-92
2022/03/16 11:37:15;;;;;;;25.60;13.30;;;15.60;52.50;;;;;;5104391;27;20445;-90
2022/03/16 11:39:44;;;;;;;26.93;16.00;;;15.70;51.30;;;;;;5080526;27;20988;-91
2022/03/16 11:42:13;;;;;;;25.30;15.67;;;15.50;51.90;;;;;;5117863;27;20952;-91
2022/03/16 11:44:42;;;;;;;60.17;26.97;;;15.80;53.00;;;;;;5094482;27;20485;-90
2022/03/16 11:47:36;;;;;;;21.20;14.37;;;16.00;49.90;;;;;;5113067;27;20498;-90
2022/03/16 11:50:13;;;;;;;18.93;13.00;;;16.30;50.00;;;;;;5102839;27;20444;-91
2022/03/16 11:53:04;;;;;;;31.83;16.80;;;15.90;50.20;;;;;;5112368;27;20437;-90
2022/03/16 11:55:43;;;;;;;25.70;14.73;;;16.00;51.20;;;;;;5093860;27;20572;-90
2022/03/16 11:58:29;;;;;;;22.40;13.37;;;16.30;50.30;;;;;;5129234;27;20441;-91
2022/03/16 12:01:30;;;;;;;23.73;14.50;;;16.60;49.60;;;;;;5103376;27;20448;-91
2022/03/16 12:04:08;;;;;;;29.03;16.80;;;16.90;49.30;;;;;;5111834;27;20747;-91
2022/03/16 12:06:53;;;;;;;22.30;14.67;;;17.30;48.50;;;;;;5102219;27;21519;-90
2022/03/16 12:09:30;;;;;;;21.67;14.47;;;17.70;46.80;;;;;;5113629;27;20549;-90
2022/03/16 12:15:23;;;;;;;28.67;16.10;;;17.40;48.50;;;;;;5086315;27;20519;-90
2022/03/16 12:18:31;;;;;;;22.63;14.33;;;17.20;47.40;;;;;;5105909;27;20469;-91
2022/03/16 12:21:08;;;;;;;23.30;15.23;;;17.20;47.30;;;;;;5099138;27;20459;-90
2022/03/16 12:23:58;;;;;;;20.40;14.70;;;17.30;47.90;;;;;;5086008;27;20471;-90
2022/03/16 12:26:30;;;;;;;26.50;15.07;;;17.60;46.90;;;;;;5099487;27;20437;-90
2022/03/16 12:29:07;;;;;;;22.83;13.77;;;17.40;46.70;;;;;;5113300;27;20441;-91
2022/03/16 12:31:40;;;;;;;19.90;13.57;;;17.60;47.60;;;;;;5115934;27;20684;-90
2022/03/16 12:34:07;;;;;;;22.33;13.93;;;17.50;45.90;;;;;;5127336;27;20606;-89
2022/03/16 12:36:36;;;;;;;21.20;13.20;;;17.00;46.70;;;;;;5095093;27;20593;-90
2022/03/16 12:39:07;;;;;;;21.07;13.27;;;17.10;46.70;;;;;;5131801;27;21130;-91
2022/03/16 12:44:21;;;;;;;27.33;16.80;;;17.50;47.00;;;;;;5099917;27;20454;-91
2022/03/16 12:47:01;;;;;;;24.70;14.33;;;17.80;45.00;;;;;;5132742;27;20542;-91
2022/03/16 12:49:28;;;;;;;30.37;16.43;;;17.80;45.10;;;;;;5114154;27;20434;-89
2022/03/16 12:51:59;;;;;;;25.47;15.50;;;17.40;46.40;;;;;;5091558;27;20449;-87
2022/03/16 12:54:31;;;;;;;38.37;21.43;;;17.30;47.10;;;;;;5107626;27;20986;-87
2022/03/16 12:57:02;;;;;;;29.40;19.23;;;17.70;45.70;;;;;;5110175;27;20488;-89
2022/03/16 12:59:31;;;;;;;26.90;16.17;;;18.00;45.10;;;;;;5108773;27;20551;-90
2022/03/16 13:01:58;;;;;;;28.90;17.73;;;18.30;45.70;;;;;;5090866;27;20502;-90
2022/03/16 13:04:27;;;;;;;58.83;27.13;;;18.30;44.10;;;;;;5111412;27;21260;-90